METAR Torp

ENTO 230350Z 34003KT 5000 FEW002 SCT004 15/15 Q1009

METAR Gardermoen

ENGM 230350Z VRB02KT CAVOK 14/12 Q1008 NOSIG

Webcam Kjeller